createdAt,value
2018-05-03T00:02:04.924Z,73.28
2018-05-03T00:04:33.069Z,73.21
2018-05-03T00:07:01.319Z,73.13
2018-05-03T00:09:29.555Z,73.47
2018-05-03T00:11:57.814Z,73.77
2018-05-03T00:14:26.074Z,73.26
2018-05-03T00:16:55.088Z,73.04
2018-05-03T00:19:23.326Z,74.42
2018-05-03T00:21:51.675Z,74.68
2018-05-03T00:24:19.911Z,73.55
2018-05-03T00:26:48.227Z,74.09
2018-05-03T00:29:17.607Z,74.12
2018-05-03T00:31:45.930Z,74.62
2018-05-03T00:34:15.170Z,74.21
2018-05-03T00:36:43.415Z,75.30
2018-05-03T00:39:11.663Z,75.57
2018-05-03T00:41:39.916Z,74.86
2018-05-03T00:44:09.014Z,75.33
2018-05-03T00:46:38.038Z,74.75
2018-05-03T00:49:06.279Z,75.47
2018-05-03T00:51:34.607Z,75.58
2018-05-03T00:54:03.618Z,76.03
2018-05-03T00:56:32.626Z,76.50
2018-05-03T00:59:01.648Z,75.97
2018-05-03T01:01:29.875Z,74.79
2018-05-03T01:03:58.198Z,74.87
2018-05-03T01:06:27.203Z,75.45
2018-05-03T01:08:56.222Z,75.17
2018-05-03T01:11:25.225Z,75.32
2018-05-03T01:13:54.244Z,75.66
2018-05-03T01:16:22.519Z,74.90
2018-05-03T01:18:52.291Z,73.85
2018-05-03T01:21:20.532Z,74.18
2018-05-03T01:23:49.547Z,74.33
2018-05-03T01:26:17.789Z,73.04
2018-05-03T01:28:46.036Z,73.11
2018-05-03T01:31:14.274Z,72.99
2018-05-03T01:33:42.593Z,74.35
2018-05-03T01:36:27.523Z,72.22
2018-05-03T01:38:55.802Z,71.94
2018-05-03T01:41:24.040Z,71.06
2018-05-03T01:43:52.333Z,72.06
2018-05-03T01:46:21.350Z,72.44
2018-05-03T01:48:49.625Z,72.58
2018-05-03T01:51:18.639Z,73.93
2018-05-03T01:53:47.647Z,72.37
2018-05-03T01:56:15.945Z,72.78
2018-05-03T01:58:45.039Z,73.24
2018-05-03T02:01:14.075Z,72.99
2018-05-03T02:03:42.347Z,72.64
2018-05-03T02:06:11.731Z,73.69
2018-05-03T02:08:40.050Z,72.50
2018-05-03T02:11:09.053Z,72.31
2018-05-03T02:13:38.076Z,72.53
2018-05-03T02:16:06.310Z,72.54
2018-05-03T02:18:34.563Z,72.69
2018-05-03T02:21:02.854Z,71.87
2018-05-03T02:23:31.099Z,72.08
2018-05-03T02:25:59.399Z,71.67
2018-05-03T02:28:28.430Z,72.39
2018-05-03T02:30:56.684Z,70.62
2018-05-03T02:33:24.919Z,70.51
2018-05-03T02:35:53.180Z,70.47
2018-05-03T02:38:22.171Z,70.03
2018-05-03T02:40:50.675Z,70.39
2018-05-03T02:43:19.688Z,68.80
2018-05-03T02:45:48.785Z,70.25
2018-05-03T02:48:17.795Z,70.19
2018-05-03T02:50:46.825Z,68.05
2018-05-03T02:53:15.059Z,68.29
2018-05-03T02:55:43.324Z,68.82
2018-05-03T02:58:29.083Z,67.76
2018-05-03T03:01:20.846Z,67.06
2018-05-03T03:04:12.579Z,67.10
2018-05-03T03:14:00.072Z,66.96
2018-05-03T03:16:51.723Z,68.41
2018-05-03T03:23:04.897Z,64.21
2018-05-03T03:29:30.371Z,66.86
2018-05-03T03:32:16.371Z,65.64
2018-05-03T03:34:44.599Z,65.43
2018-05-03T03:37:30.869Z,65.39
2018-05-03T03:40:22.344Z,64.56
2018-05-03T03:43:06.543Z,61.65
2018-05-03T03:45:35.559Z,62.51
2018-05-03T03:48:03.795Z,61.83
2018-05-03T03:50:32.053Z,62.13
2018-05-03T03:53:00.358Z,60.66
2018-05-03T03:55:29.371Z,61.74
2018-05-03T03:57:58.358Z,61.20
2018-05-03T04:00:26.644Z,62.42
2018-05-03T04:02:54.909Z,62.31
2018-05-03T04:05:23.141Z,63.09
2018-05-03T04:07:52.164Z,61.74
2018-05-03T04:10:21.554Z,61.41
2018-05-03T04:12:50.591Z,60.30
2018-05-03T04:15:18.827Z,60.03
2018-05-03T04:18:04.764Z,59.89
2018-05-03T04:21:03.210Z,60.32
2018-05-03T04:23:49.944Z,60.34
2018-05-03T04:26:18.199Z,60.89
2018-05-03T04:28:46.430Z,60.53
2018-05-03T04:31:14.685Z,61.01
2018-05-03T04:33:42.924Z,59.22
2018-05-03T04:36:11.187Z,61.93
2018-05-03T04:38:39.437Z,59.39
2018-05-03T04:41:07.731Z,61.00
2018-05-03T04:43:36.018Z,61.16
2018-05-03T04:46:04.244Z,59.12
2018-05-03T04:48:32.487Z,59.27
2018-05-03T04:51:00.722Z,58.63
2018-05-03T04:53:28.971Z,57.83
2018-05-03T04:55:57.206Z,59.00
2018-05-03T04:58:25.461Z,58.91
2018-05-03T05:00:53.699Z,58.89
2018-05-03T05:03:22.026Z,59.78
2018-05-03T05:05:50.168Z,58.87
2018-05-03T05:08:19.253Z,59.19
2018-05-03T05:10:47.487Z,61.10
2018-05-03T05:13:16.503Z,58.51
2018-05-03T05:15:44.729Z,59.83
2018-05-03T05:18:13.024Z,57.67
2018-05-03T05:20:41.263Z,59.63
2018-05-03T05:23:10.295Z,57.19
2018-05-03T05:25:38.523Z,57.24
2018-05-03T05:28:06.776Z,57.91
2018-05-03T05:30:35.028Z,58.15
2018-05-03T05:33:03.259Z,58.17
2018-05-03T05:35:31.499Z,58.31
2018-05-03T05:38:00.510Z,56.82
2018-05-03T05:40:29.511Z,58.15
2018-05-03T05:42:59.282Z,57.95
2018-05-03T05:45:27.527Z,57.77
2018-05-03T05:47:57.142Z,59.20
2018-05-03T05:50:25.377Z,59.77
2018-05-03T05:52:53.631Z,57.84
2018-05-03T05:55:22.648Z,59.21
2018-05-03T05:57:51.657Z,59.21
2018-05-03T06:00:19.903Z,58.64
2018-05-03T06:02:48.142Z,57.23
2018-05-03T06:05:16.395Z,56.66
2018-05-03T06:07:44.626Z,57.31
2018-05-03T06:10:13.000Z,58.45
2018-05-03T06:12:41.135Z,57.48
2018-05-03T06:15:09.920Z,57.90
2018-05-03T06:17:38.161Z,58.00
2018-05-03T06:20:07.180Z,57.68
2018-05-03T06:22:36.187Z,56.83
2018-05-03T06:25:04.433Z,57.04
2018-05-03T06:27:32.670Z,56.37
2018-05-03T06:30:00.930Z,56.99
2018-05-03T06:32:29.927Z,56.74
2018-05-03T06:34:58.258Z,56.53
2018-05-03T06:37:27.250Z,56.74
2018-05-03T06:39:56.276Z,57.53
2018-05-03T06:42:24.506Z,58.75
2018-05-03T06:44:52.760Z,58.43
2018-05-03T06:47:20.994Z,57.87
2018-05-03T06:49:49.260Z,58.16
2018-05-03T06:52:17.495Z,55.99
2018-05-03T06:54:46.515Z,56.93
2018-05-03T06:57:14.746Z,56.08
2018-05-03T06:59:43.008Z,55.82
2018-05-03T07:02:11.247Z,55.78
2018-05-03T07:04:41.096Z,56.00
2018-05-03T07:07:10.095Z,56.22
2018-05-03T07:09:39.104Z,55.77
2018-05-03T07:12:08.112Z,54.90
2018-05-03T07:14:37.879Z,55.61
2018-05-03T07:17:06.123Z,56.54
2018-05-03T07:19:35.138Z,56.05
2018-05-03T07:22:03.467Z,56.32
2018-05-03T07:24:32.398Z,55.45
2018-05-03T07:27:00.632Z,54.95
2018-05-03T07:29:28.937Z,55.86
2018-05-03T07:31:57.114Z,53.76
2018-05-03T07:34:25.352Z,55.65
2018-05-03T07:36:53.606Z,54.47
2018-05-03T07:39:21.839Z,54.48
2018-05-03T07:41:50.096Z,55.32
2018-05-03T07:44:18.334Z,54.29
2018-05-03T07:46:47.341Z,54.14
2018-05-03T07:49:16.344Z,53.58
2018-05-03T07:51:45.366Z,55.37
2018-05-03T07:54:14.372Z,55.55
2018-05-03T07:56:43.482Z,51.76
2018-05-03T07:59:12.575Z,51.92
2018-05-03T08:01:41.596Z,53.48
2018-05-03T08:04:09.841Z,52.83
2018-05-03T08:06:38.151Z,53.15
2018-05-03T08:09:07.159Z,51.99
2018-05-03T08:11:36.183Z,52.99
2018-05-03T08:14:04.419Z,52.60
2018-05-03T08:16:32.668Z,52.88
2018-05-03T08:19:00.907Z,53.96
2018-05-03T08:21:29.171Z,54.37
2018-05-03T08:23:57.406Z,52.88
2018-05-03T08:26:26.540Z,54.06
2018-05-03T08:28:54.767Z,52.03
2018-05-03T08:31:23.023Z,51.39
2018-05-03T08:33:51.255Z,51.03
2018-05-03T08:36:19.511Z,51.57
2018-05-03T08:38:47.748Z,52.28
2018-05-03T08:41:16.020Z,51.73
2018-05-03T08:43:44.256Z,52.08
2018-05-03T08:46:12.499Z,52.42
2018-05-03T08:48:40.758Z,50.38
2018-05-03T08:51:08.987Z,52.10
2018-05-03T08:53:37.227Z,52.19
2018-05-03T08:56:05.461Z,51.80
2018-05-03T08:58:33.703Z,51.45
2018-05-03T09:01:01.945Z,51.30
2018-05-03T09:03:30.200Z,51.21
2018-05-03T09:05:58.446Z,50.83
2018-05-03T09:08:28.212Z,53.31
2018-05-03T09:10:56.452Z,51.90
2018-05-03T09:13:25.463Z,51.37
2018-05-03T09:15:53.718Z,52.63
2018-05-03T09:18:22.037Z,52.23
2018-05-03T09:20:51.043Z,52.27
2018-05-03T09:23:20.071Z,51.64
2018-05-03T09:25:48.337Z,51.31
2018-05-03T09:28:17.379Z,51.76
2018-05-03T09:30:45.624Z,49.77
2018-05-03T09:33:13.906Z,50.78
2018-05-03T09:35:42.235Z,50.78
2018-05-03T09:38:10.499Z,48.93
2018-05-03T09:40:39.515Z,49.94
2018-05-03T09:43:07.783Z,49.97
2018-05-03T09:45:36.804Z,49.04
2018-05-03T09:48:05.855Z,50.59
2018-05-03T09:50:34.872Z,47.56
2018-05-03T09:53:03.146Z,49.95
2018-05-03T09:55:31.407Z,48.30
2018-05-03T09:57:59.683Z,47.98
2018-05-03T10:00:28.700Z,46.99
2018-05-03T10:02:57.805Z,46.43
2018-05-03T10:05:26.851Z,47.22
2018-05-03T10:07:55.107Z,47.80
2018-05-03T10:10:24.133Z,48.12
2018-05-03T10:12:52.403Z,49.12
2018-05-03T10:15:21.430Z,47.80
2018-05-03T10:17:49.691Z,47.34
2018-05-03T10:20:17.968Z,48.22
2018-05-03T10:22:46.980Z,48.12
2018-05-03T10:25:15.995Z,47.49
2018-05-03T10:27:45.011Z,48.44
2018-05-03T10:30:13.290Z,46.66
2018-05-03T10:32:42.306Z,47.29
2018-05-03T10:35:10.594Z,48.07
2018-05-03T10:37:38.979Z,49.30
2018-05-03T10:40:07.247Z,51.10
2018-05-03T10:42:36.284Z,49.36
2018-05-03T10:45:04.540Z,48.34
2018-05-03T10:47:32.811Z,48.61
2018-05-03T10:50:01.087Z,48.61
2018-05-03T10:52:29.379Z,48.20
2018-05-03T10:54:57.637Z,47.33
2018-05-03T10:57:25.909Z,47.96
2018-05-03T10:59:54.944Z,48.41
2018-05-03T11:02:23.195Z,48.53
2018-05-03T11:04:52.271Z,47.51
2018-05-03T11:07:22.063Z,46.71
2018-05-03T11:09:50.354Z,47.18
2018-05-03T11:12:18.627Z,47.42
2018-05-03T11:14:46.896Z,47.23
2018-05-03T11:17:15.909Z,47.75
2018-05-03T11:19:44.929Z,47.09
2018-05-03T11:22:13.173Z,46.36
2018-05-03T11:24:41.444Z,45.76
2018-05-03T11:27:09.702Z,46.60
2018-05-03T11:29:37.972Z,45.20
2018-05-03T11:32:06.974Z,45.55
2018-05-03T11:34:35.222Z,45.01
2018-05-03T11:37:03.515Z,46.43
2018-05-03T11:39:31.755Z,45.32
2018-05-03T11:41:59.987Z,43.67
2018-05-03T11:44:28.256Z,44.62
2018-05-03T11:46:56.528Z,43.25
2018-05-03T11:49:24.771Z,43.61
2018-05-03T11:51:53.869Z,43.51
2018-05-03T11:54:22.134Z,43.06
2018-05-03T11:56:50.399Z,42.46
2018-05-03T12:02:30.869Z,42.82
2018-05-03T12:04:59.466Z,42.41
2018-05-03T12:07:27.738Z,42.23
2018-05-03T12:09:56.046Z,43.88
2018-05-03T12:12:24.304Z,43.78
2018-05-03T12:14:52.554Z,41.78
2018-05-03T12:17:20.835Z,41.88
2018-05-03T12:19:49.084Z,43.23
2018-05-03T12:22:17.342Z,42.13
2018-05-03T12:24:46.355Z,43.55
2018-05-03T12:27:15.380Z,43.72
2018-05-03T12:29:43.675Z,42.68
2018-05-03T12:32:11.940Z,42.91
2018-05-03T12:34:40.951Z,42.17
2018-05-03T12:37:10.043Z,42.07
2018-05-03T12:39:39.074Z,42.86
2018-05-03T12:42:08.201Z,42.15
2018-05-03T12:44:36.480Z,43.76
2018-05-03T12:47:04.736Z,42.91
2018-05-03T12:49:33.739Z,42.81
2018-05-03T12:52:02.007Z,42.89
2018-05-03T12:54:30.259Z,41.30
2018-05-03T12:56:58.599Z,42.39
2018-05-03T12:59:26.906Z,41.60
2018-05-03T13:01:55.263Z,42.80
2018-05-03T13:04:23.537Z,43.26
2018-05-03T13:06:51.810Z,42.86
2018-05-03T13:09:20.074Z,42.98
2018-05-03T13:11:48.388Z,41.54
2018-05-03T13:14:16.706Z,42.74
2018-05-03T13:16:44.895Z,42.74
2018-05-03T13:19:14.501Z,43.09
2018-05-03T13:21:43.531Z,42.54
2018-05-03T13:24:11.768Z,44.02
2018-05-03T13:26:40.075Z,42.37
2018-05-03T13:29:08.318Z,43.25
2018-05-03T13:31:36.566Z,42.42
2018-05-03T13:34:05.592Z,42.27
2018-05-03T13:36:33.849Z,42.97
2018-05-03T13:39:02.136Z,42.94
2018-05-03T13:41:30.447Z,42.81
2018-05-03T13:43:59.470Z,42.15
2018-05-03T13:46:27.714Z,43.87
2018-05-03T13:48:55.978Z,43.57
2018-05-03T13:51:24.235Z,43.08
2018-05-03T13:53:52.515Z,43.98
2018-05-03T13:56:21.511Z,42.73
2018-05-03T13:58:49.770Z,42.80
2018-05-03T14:01:18.023Z,41.81
2018-05-03T14:03:46.280Z,43.93
2018-05-03T14:06:15.284Z,43.10
2018-05-03T14:08:44.330Z,43.83
2018-05-03T14:11:12.577Z,44.01
2018-05-03T14:13:41.596Z,43.71
2018-05-03T14:16:09.839Z,43.63
2018-05-03T14:18:38.191Z,42.17
2018-05-03T14:21:06.439Z,44.11
2018-05-03T14:23:34.687Z,43.50
2018-05-03T14:26:02.922Z,43.12
2018-05-03T14:28:31.943Z,42.92
2018-05-03T14:31:00.186Z,40.99
2018-05-03T14:33:28.447Z,42.56
2018-05-03T14:35:56.668Z,41.27
2018-05-03T14:38:24.947Z,42.47
2018-05-03T14:40:54.684Z,40.60
2018-05-03T14:43:22.961Z,42.10
2018-05-03T14:45:51.206Z,40.68
2018-05-03T14:48:19.449Z,42.98
2018-05-03T14:50:47.703Z,42.64
2018-05-03T14:53:15.992Z,41.97
2018-05-03T14:55:44.223Z,43.15
2018-05-03T14:58:12.555Z,42.84
2018-05-03T15:00:40.786Z,43.15
2018-05-03T15:03:09.024Z,42.55
2018-05-03T15:05:37.273Z,42.39
2018-05-03T15:08:05.511Z,42.82
2018-05-03T15:10:33.777Z,42.64
2018-05-03T15:13:02.003Z,41.48
2018-05-03T15:15:30.272Z,41.81
2018-05-03T15:17:58.512Z,41.69
2018-05-03T15:20:26.775Z,41.97
2018-05-03T15:22:55.786Z,42.18
2018-05-03T15:25:24.811Z,43.27
2018-05-03T15:27:53.039Z,41.82
2018-05-03T15:30:21.296Z,41.43
2018-05-03T15:32:49.531Z,42.50
2018-05-03T15:35:17.797Z,43.37
2018-05-03T15:37:46.039Z,43.32
2018-05-03T15:40:15.058Z,44.17
2018-05-03T15:42:43.311Z,43.74
2018-05-03T15:45:11.569Z,44.30
2018-05-03T15:47:39.798Z,44.95
2018-05-03T15:50:08.827Z,42.87
2018-05-03T15:52:37.062Z,43.79
2018-05-03T15:55:05.328Z,43.64
2018-05-03T15:57:33.575Z,43.92
2018-05-03T16:00:01.832Z,44.55
2018-05-03T16:02:30.079Z,44.00
2018-05-03T16:04:58.333Z,44.17
2018-05-03T16:07:27.353Z,44.58
2018-05-03T16:09:56.958Z,45.73
2018-05-03T16:12:25.961Z,43.78
2018-05-03T16:14:55.355Z,44.00
2018-05-03T16:17:23.590Z,44.52
2018-05-03T16:19:51.840Z,44.10
2018-05-03T16:22:21.427Z,43.75
2018-05-03T16:24:50.459Z,43.91
2018-05-03T16:27:18.772Z,43.67
2018-05-03T16:29:47.029Z,43.97
2018-05-03T16:32:15.254Z,43.85
2018-05-03T16:34:43.532Z,43.35
2018-05-03T16:37:12.523Z,44.11
2018-05-03T16:39:40.795Z,43.18
2018-05-03T16:42:09.088Z,43.87
2018-05-03T16:44:37.313Z,43.71
2018-05-03T16:47:05.568Z,43.21
2018-05-03T16:49:33.825Z,43.28
2018-05-03T16:52:02.838Z,44.46
2018-05-03T16:54:31.840Z,43.39
2018-05-03T16:57:00.896Z,43.96
2018-05-03T16:59:29.134Z,43.80
2018-05-03T17:01:58.158Z,43.04
2018-05-03T17:04:26.396Z,41.84
2018-05-03T17:06:54.655Z,42.13
2018-05-03T17:09:22.883Z,42.73
2018-05-03T17:11:51.134Z,43.45
2018-05-03T17:14:19.372Z,43.94
2018-05-03T17:16:47.688Z,44.15
2018-05-03T17:19:15.945Z,44.45
2018-05-03T17:21:44.213Z,44.73
2018-05-03T17:24:12.456Z,44.56
2018-05-03T17:26:40.720Z,44.91
2018-05-03T17:29:09.731Z,45.19
2018-05-03T17:31:38.756Z,44.81
2018-05-03T17:34:06.991Z,44.87
2018-05-03T17:36:35.246Z,44.61
2018-05-03T17:39:03.558Z,44.92
2018-05-03T17:41:31.731Z,44.99
2018-05-03T17:43:59.964Z,45.28
2018-05-03T17:46:29.917Z,45.67
2018-05-03T17:48:58.084Z,44.90
2018-05-03T17:51:26.417Z,45.22
2018-05-03T17:53:54.675Z,46.15
2018-05-03T17:56:23.738Z,46.24
2018-05-03T17:58:51.970Z,46.45
2018-05-03T18:01:20.975Z,46.92
2018-05-03T18:03:49.999Z,46.90
2018-05-03T18:06:18.243Z,46.78
2018-05-03T18:08:46.507Z,46.71
2018-05-03T18:11:14.747Z,46.59
2018-05-03T18:13:43.768Z,47.26
2018-05-03T18:16:12.120Z,48.35
2018-05-03T18:18:41.071Z,49.18
2018-05-03T18:21:09.327Z,50.16
2018-05-03T18:23:37.611Z,50.75
2018-05-03T18:26:05.878Z,51.35
2018-05-03T18:28:34.103Z,51.80
2018-05-03T18:31:03.099Z,52.33
2018-05-03T18:33:31.366Z,53.36
2018-05-03T18:35:59.599Z,53.62
2018-05-03T18:38:27.871Z,53.94
2018-05-03T18:40:56.883Z,53.69
2018-05-03T18:43:25.915Z,54.13
2018-05-03T18:45:54.137Z,55.08
2018-05-03T18:48:22.390Z,55.35
2018-05-03T18:50:50.628Z,55.69
2018-05-03T18:53:18.882Z,56.27
2018-05-03T18:55:47.124Z,56.26
2018-05-03T18:58:16.218Z,56.01
2018-05-03T19:00:45.148Z,57.11
2018-05-03T19:03:14.225Z,56.43
2018-05-03T19:05:42.460Z,55.69
2018-05-03T19:08:11.497Z,55.96
2018-05-03T19:10:39.739Z,56.05
2018-05-03T19:13:08.854Z,56.29
2018-05-03T19:15:36.991Z,56.40
2018-05-03T19:18:05.248Z,56.21
2018-05-03T19:20:33.511Z,56.51
2018-05-03T19:23:01.739Z,56.82
2018-05-03T19:25:29.976Z,57.30
2018-05-03T19:27:58.213Z,57.33
2018-05-03T19:30:26.475Z,56.66
2018-05-03T19:32:54.729Z,56.54
2018-05-03T19:35:23.032Z,55.99
2018-05-03T19:37:51.231Z,56.19
2018-05-03T19:40:21.097Z,56.52
2018-05-03T19:42:49.319Z,55.86
2018-05-03T19:45:17.599Z,55.87
2018-05-03T19:47:45.896Z,55.64
2018-05-03T19:50:14.129Z,56.38
2018-05-03T19:52:42.327Z,56.07
2018-05-03T19:55:10.581Z,56.51
2018-05-03T19:57:39.597Z,57.16
2018-05-03T20:00:08.619Z,56.63
2018-05-03T20:02:36.859Z,56.91
2018-05-03T20:05:05.122Z,57.17
2018-05-03T20:07:33.360Z,56.14
2018-05-03T20:10:02.388Z,56.32
2018-05-03T20:12:30.621Z,56.86
2018-05-03T20:14:58.875Z,57.49
2018-05-03T20:17:27.107Z,57.02
2018-05-03T20:19:55.359Z,57.50
2018-05-03T20:22:23.595Z,58.12
2018-05-03T20:24:51.861Z,58.09
2018-05-03T20:27:20.113Z,57.88
2018-05-03T20:29:48.432Z,57.34
2018-05-03T20:32:16.674Z,57.29
2018-05-03T20:34:45.700Z,56.92
2018-05-03T20:37:13.950Z,57.43
2018-05-03T20:39:42.282Z,57.47
2018-05-03T20:42:11.271Z,56.52
2018-05-03T20:44:40.271Z,56.52
2018-05-03T20:47:08.527Z,55.98
2018-05-03T20:49:36.766Z,56.37
2018-05-03T20:52:05.090Z,56.59
2018-05-03T20:54:34.035Z,56.66
2018-05-03T20:57:03.084Z,57.54
2018-05-03T20:59:31.331Z,57.47
2018-05-03T21:02:00.348Z,57.49
2018-05-03T21:04:29.344Z,57.90
2018-05-03T21:06:58.458Z,58.15
2018-05-03T21:09:26.604Z,58.57
2018-05-03T21:11:54.857Z,57.97
2018-05-03T21:14:23.099Z,57.51
2018-05-03T21:16:51.350Z,57.67
2018-05-03T21:19:19.599Z,58.17
2018-05-03T21:21:48.617Z,58.44
2018-05-03T21:24:16.857Z,57.98
2018-05-03T21:26:45.143Z,57.27
2018-05-03T21:29:13.392Z,57.41
2018-05-03T21:31:41.642Z,57.15
2018-05-03T21:34:09.882Z,57.69
2018-05-03T21:36:38.125Z,58.45
2018-05-03T21:39:07.123Z,58.36
2018-05-03T21:41:35.412Z,57.98
2018-05-03T21:44:03.654Z,58.76
2018-05-03T21:46:31.924Z,58.42
2018-05-03T21:49:00.160Z,58.72
2018-05-03T21:51:28.485Z,58.69
2018-05-03T21:53:56.655Z,58.79
2018-05-03T21:56:25.682Z,58.92
2018-05-03T21:58:54.683Z,59.18
2018-05-03T22:01:23.784Z,59.21
2018-05-03T22:03:52.835Z,59.60
2018-05-03T22:06:21.089Z,59.69
2018-05-03T22:08:50.083Z,60.04
2018-05-03T22:11:19.120Z,59.74
2018-05-03T22:13:47.417Z,60.00
2018-05-03T22:16:15.664Z,60.42
2018-05-03T22:18:43.922Z,60.52
2018-05-03T22:21:12.148Z,60.19
2018-05-03T22:23:41.167Z,59.89
2018-05-03T22:26:10.171Z,60.40
2018-05-03T22:28:39.559Z,60.01
2018-05-03T22:31:07.794Z,60.93
2018-05-03T22:33:36.042Z,60.95
2018-05-03T22:36:04.294Z,61.71
2018-05-03T22:38:32.576Z,61.42
2018-05-03T22:41:00.807Z,61.27
2018-05-03T22:43:29.071Z,62.21
2018-05-03T22:45:57.324Z,62.50
2018-05-03T22:48:26.328Z,62.27
2018-05-03T22:50:54.576Z,62.32
2018-05-03T22:53:22.818Z,62.29
2018-05-03T22:55:51.055Z,62.79
2018-05-03T22:58:19.316Z,62.04
2018-05-03T23:00:47.556Z,62.75
2018-05-03T23:03:16.946Z,62.52
2018-05-03T23:05:45.178Z,63.11
2018-05-03T23:08:13.423Z,62.58
2018-05-03T23:10:41.659Z,63.13
2018-05-03T23:13:09.902Z,63.31
2018-05-03T23:15:38.159Z,63.40
2018-05-03T23:18:06.398Z,64.00
2018-05-03T23:20:35.778Z,64.18
2018-05-03T23:23:04.041Z,63.70
2018-05-03T23:25:32.276Z,62.84
2018-05-03T23:28:00.518Z,63.11
2018-05-03T23:30:28.801Z,62.71
2018-05-03T23:32:57.782Z,63.15
2018-05-03T23:35:26.040Z,63.39
2018-05-03T23:37:54.274Z,63.23
2018-05-03T23:40:22.516Z,64.13
2018-05-03T23:42:50.766Z,64.27
2018-05-03T23:45:19.031Z,63.92
2018-05-03T23:47:47.289Z,64.03
2018-05-03T23:50:15.537Z,64.37
2018-05-03T23:52:43.827Z,64.93
2018-05-03T23:55:12.075Z,65.36
2018-05-03T23:57:41.075Z,65.95
